Time;durP1;ratioP1;P1;durP2;ratioP2;P2;SDS_P1;SDS_P2;PMS_P1;PMS_P2;Temp;Humidity;BMP_temperature;BMP_pressure;BME280_temperature;BME280_humidity;BME280_pressure;Samples;Min_cycle;Max_cycle;Signal;HPM_P1;HPM_P2
2023/12/29 00:02:23;;;;;;;2.25;0.77;;;;;;;10.46;100.00;100322.78;6300570;28;20052;-77
2023/12/29 00:05:25;;;;;;;4.03;0.80;;;;;;;10.39;100.00;100328.38;6299501;28;20368;-77
2023/12/29 00:08:26;;;;;;;7.82;1.17;;;;;;;10.50;100.00;100301.50;6288048;28;20053;-77
2023/12/29 00:11:28;;;;;;;7.15;1.38;;;;;;;10.57;100.00;100309.84;6300582;28;20052;-76
2023/12/29 00:14:30;;;;;;;5.30;1.13;;;;;;;10.56;100.00;100303.72;6299429;28;20056;-76
2023/12/29 00:17:32;;;;;;;4.15;1.48;;;;;;;10.45;100.00;100302.72;6293678;28;20048;-78
2023/12/29 00:20:33;;;;;;;3.13;0.65;;;;;;;10.46;100.00;100307.84;6293772;28;20051;-76
2023/12/29 00:23:34;;;;;;;3.17;1.05;;;;;;;10.51;100.00;100292.66;6299955;28;20063;-75
2023/12/29 00:26:37;;;;;;;4.95;1.00;;;;;;;10.45;100.00;100279.91;6299623;28;20055;-76
2023/12/29 00:29:39;;;;;;;5.78;1.17;;;;;;;10.50;100.00;100287.50;6300146;28;20044;-75
2023/12/29 00:32:40;;;;;;;4.85;1.13;;;;;;;10.49;100.00;100302.44;6299655;28;20375;-76
2023/12/29 00:35:42;;;;;;;6.78;1.23;;;;;;;10.51;100.00;100283.94;6293342;28;20041;-76
2023/12/29 00:38:43;;;;;;;8.52;1.33;;;;;;;10.51;100.00;100292.66;6273727;28;20072;-74
2023/12/29 00:41:46;;;;;;;4.43;0.88;;;;;;;10.50;100.00;100293.59;6273918;28;20044;-76
2023/12/29 00:44:47;;;;;;;4.85;1.15;;;;;;;10.61;100.00;100285.06;6277849;28;20056;-75
2023/12/29 00:47:50;;;;;;;4.72;0.98;;;;;;;10.62;100.00;100292.00;6279677;28;20048;-77
2023/12/29 00:50:52;;;;;;;2.13;0.80;;;;;;;10.61;100.00;100293.78;6291642;28;20040;-76
2023/12/29 00:53:53;;;;;;;10.55;2.08;;;;;;;10.48;100.00;100287.59;6281472;28;20345;-76
2023/12/29 00:56:56;;;;;;;5.28;1.10;;;;;;;10.44;100.00;100295.75;6274165;28;20049;-76
2023/12/29 00:59:57;;;;;;;4.93;1.20;;;;;;;10.41;100.00;100284.50;6274589;28;20040;-77
2023/12/29 01:02:58;;;;;;;7.85;1.27;;;;;;;10.35;100.00;100292.72;6282927;28;20053;-76
2023/12/29 01:06:00;;;;;;;7.47;1.27;;;;;;;10.22;100.00;100307.50;6296266;28;20468;-76
2023/12/29 01:09:01;;;;;;;10.63;1.40;;;;;;;9.88;100.00;100304.19;6311427;22;20052;-71
2023/12/29 01:12:04;;;;;;;2.70;0.80;;;;;;;9.58;100.00;100298.06;6280129;28;20425;-71
2023/12/29 01:15:06;;;;;;;5.43;1.73;;;;;;;9.47;100.00;100293.44;6290767;28;20052;-71
2023/12/29 01:18:07;;;;;;;9.30;1.33;;;;;;;9.38;100.00;100300.03;6301219;28;20053;-71
2023/12/29 01:21:09;;;;;;;1.90;1.48;;;;;;;9.31;100.00;100300.44;6304464;28;20041;-71
2023/12/29 01:24:10;;;;;;;5.55;1.20;;;;;;;9.29;100.00;100283.97;6304206;28;20045;-71
2023/12/29 01:27:13;;;;;;;4.93;1.17;;;;;;;9.30;100.00;100290.91;6303569;28;20447;-71
2023/12/29 01:30:14;;;;;;;5.15;1.40;;;;;;;9.21;100.00;100286.16;6304028;28;20119;-71
2023/12/29 01:33:16;;;;;;;7.45;1.13;;;;;;;9.07;100.00;100273.81;6303690;28;20048;-71
2023/12/29 01:36:20;;;;;;;7.32;1.17;;;;;;;8.92;100.00;100283.38;6300269;28;20353;-72
2023/12/29 01:39:21;;;;;;;3.83;1.15;;;;;;;8.84;100.00;100280.31;6278730;28;20056;-71
2023/12/29 01:42:24;;;;;;;3.65;1.30;;;;;;;8.77;100.00;100277.19;6278663;28;20049;-71
2023/12/29 01:45:26;;;;;;;7.20;2.03;;;;;;;8.73;100.00;100273.03;6278050;28;20357;-71
2023/12/29 01:48:28;;;;;;;2.50;0.95;;;;;;;8.74;100.00;100281.72;6278834;28;20081;-71
2023/12/29 01:51:30;;;;;;;4.88;1.15;;;;;;;8.76;100.00;100270.22;6278621;28;20044;-71
2023/12/29 01:54:35;;;;;;;4.90;1.50;;;;;;;8.73;100.00;100256.47;6277817;28;20102;-71
2023/12/29 01:57:38;;;;;;;3.38;1.45;;;;;;;8.75;100.00;100252.81;6278531;28;20053;-71
2023/12/29 02:00:40;;;;;;;2.83;1.27;;;;;;;8.75;100.00;100234.47;6278461;28;20049;-71
2023/12/29 02:03:43;;;;;;;4.20;1.48;;;;;;;8.68;100.00;100232.31;6278186;28;20049;-72
2023/12/29 02:06:44;;;;;;;9.27;1.65;;;;;;;8.68;100.00;100221.81;6277524;28;20051;-71
2023/12/29 02:09:45;;;;;;;4.28;1.25;;;;;;;8.72;100.00;100207.59;6278251;28;20045;-71
2023/12/29 02:12:49;;;;;;;8.45;1.77;;;;;;;8.74;100.00;100214.47;6277695;28;20045;-71
2023/12/29 02:15:53;;;;;;;11.52;1.58;;;;;;;8.77;100.00;100209.06;6277490;28;20052;-72
2023/12/29 02:18:57;;;;;;;7.03;1.55;;;;;;;8.79;100.00;100220.28;6277830;28;20052;-71
2023/12/29 02:21:59;;;;;;;4.05;1.58;;;;;;;8.86;100.00;100220.81;6277731;28;20048;-72
2023/12/29 02:25:01;;;;;;;6.72;1.02;;;;;;;8.89;100.00;100207.53;6277406;28;20053;-71
2023/12/29 02:28:12;;;;;;;3.85;1.00;;;;;;;8.97;100.00;100201.88;6277385;28;20049;-72
2023/12/29 02:31:18;;;;;;;6.10;2.03;;;;;;;8.93;100.00;100198.56;6277732;28;20049;-71
2023/12/29 02:34:22;;;;;;;7.00;1.20;;;;;;;8.95;100.00;100177.50;6277153;28;20064;-71
2023/12/29 02:37:25;;;;;;;8.73;1.75;;;;;;;8.97;100.00;100197.47;6277361;28;20056;-71
2023/12/29 02:40:28;;;;;;;5.72;1.02;;;;;;;9.19;100.00;100188.41;6277512;28;20041;-72
2023/12/29 02:43:31;;;;;;;4.70;1.40;;;;;;;9.30;100.00;100194.72;6277314;28;20049;-71
2023/12/29 02:46:33;;;;;;;3.25;1.00;;;;;;;9.26;100.00;100182.72;6283581;28;20045;-71
2023/12/29 02:49:34;;;;;;;5.97;1.25;;;;;;;9.18;100.00;100179.72;6295553;28;20056;-71
2023/12/29 02:52:36;;;;;;;10.82;2.17;;;;;;;9.19;100.00;100173.53;6301731;28;20048;-72
2023/12/29 02:55:39;;;;;;;7.47;1.23;;;;;;;9.11;100.00;100181.81;6287914;28;20053;-71
2023/12/29 02:58:40;;;;;;;4.25;1.40;;;;;;;9.14;100.00;100167.72;6293990;28;20049;-71
2023/12/29 03:01:42;;;;;;;5.57;1.33;;;;;;;9.08;100.00;100162.78;6291970;28;20449;-71
2023/12/29 03:04:43;;;;;;;3.20;1.10;;;;;;;9.08;100.00;100141.81;6301163;28;20419;-72
2023/12/29 03:07:45;;;;;;;8.35;1.45;;;;;;;9.07;100.00;100151.47;6301270;28;20085;-71
2023/12/29 03:10:48;;;;;;;14.40;1.65;;;;;;;9.08;100.00;100141.81;6301799;28;20447;-71
2023/12/29 03:13:49;;;;;;;7.40;1.55;;;;;;;9.22;100.00;100147.16;6301689;28;20452;-71
2023/12/29 03:16:51;;;;;;;5.28;1.20;;;;;;;9.17;100.00;100138.69;6301095;28;20044;-72
2023/12/29 03:19:53;;;;;;;4.63;1.40;;;;;;;9.16;100.00;100142.25;6301374;28;20411;-72
2023/12/29 03:22:55;;;;;;;4.43;1.40;;;;;;;9.18;100.00;100134.31;6301019;28;20537;-71
2023/12/29 03:25:57;;;;;;;2.38;1.17;;;;;;;9.26;100.00;100142.56;6300695;28;20045;-71
2023/12/29 03:28:59;;;;;;;7.90;1.23;;;;;;;9.36;100.00;100139.31;6301132;28;20452;-72
2023/12/29 03:32:00;;;;;;;7.63;1.17;;;;;;;9.33;100.00;100136.88;6300982;28;20056;-72
2023/12/29 03:35:02;;;;;;;3.15;1.27;;;;;;;9.36;100.00;100122.75;6300708;28;20049;-71
2023/12/29 03:38:03;;;;;;;1.77;1.10;;;;;;;9.31;100.00;100111.66;6300564;28;20049;-71
2023/12/29 03:41:06;;;;;;;10.38;1.65;;;;;;;9.34;100.00;100128.06;6299963;28;20045;-71
2023/12/29 03:44:08;;;;;;;10.00;1.85;;;;;;;9.43;100.00;100142.44;6273605;28;20041;-70
2023/12/29 03:47:10;;;;;;;4.32;1.52;;;;;;;9.50;100.00;100128.03;6275572;28;20041;-71
2023/12/29 03:50:11;;;;;;;1.85;1.02;;;;;;;9.54;100.00;100144.44;6275350;28;20052;-71
2023/12/29 03:53:14;;;;;;;4.00;0.93;;;;;;;9.55;100.00;100154.84;6274155;28;20434;-71
2023/12/29 03:56:19;;;;;;;3.40;0.80;;;;;;;9.32;100.00;100158.78;6274118;28;20067;-73
2023/12/29 03:59:20;;;;;;;6.78;0.80;;;;;;;9.25;100.00;100162.69;6274761;28;20045;-73
2023/12/29 04:02:22;;;;;;;3.55;0.60;;;;;;;9.07;100.00;100163.72;6274236;28;20045;-73
2023/12/29 04:05:23;;;;;;;1.23;1.05;;;;;;;9.01;100.00;100156.22;6274598;28;20053;-71
2023/12/29 04:08:24;;;;;;;3.83;1.00;;;;;;;8.96;100.00;100148.63;6274128;28;20056;-72
2023/12/29 04:11:27;;;;;;;6.18;1.20;;;;;;;8.93;100.00;100166.28;6274316;28;20053;-73
2023/12/29 04:14:28;;;;;;;1.02;0.80;;;;;;;8.89;100.00;100161.22;6274298;28;20053;-73
2023/12/29 04:17:30;;;;;;;5.45;1.10;;;;;;;8.95;100.00;100140.81;6275490;28;20048;-72
2023/12/29 04:20:31;;;;;;;3.10;1.10;;;;;;;8.95;100.00;100152.19;6275133;28;20049;-72
2023/12/29 04:23:32;;;;;;;5.85;1.35;;;;;;;9.00;100.00;100150.16;6274351;28;20049;-72
2023/12/29 04:26:37;;;;;;;4.57;1.10;;;;;;;9.04;100.00;100154.28;6274482;28;20343;-72
2023/12/29 04:29:39;;;;;;;5.05;1.02;;;;;;;9.05;100.00;100132.38;6274389;28;20354;-72
2023/12/29 04:32:40;;;;;;;6.45;1.40;;;;;;;9.01;100.00;100140.50;6274891;28;20048;-73
2023/12/29 04:35:41;;;;;;;4.82;1.30;;;;;;;8.99;100.00;100137.09;6273950;28;20052;-73
2023/12/29 04:38:43;;;;;;;2.08;1.05;;;;;;;8.89;100.00;100132.38;6274683;28;20362;-72
2023/12/29 04:41:45;;;;;;;13.23;1.23;;;;;;;8.87;100.00;100136.03;6274276;28;20045;-72
2023/12/29 04:44:47;;;;;;;1.85;1.10;;;;;;;8.85;100.00;100136.09;6271956;28;20049;-72
2023/12/29 04:47:48;;;;;;;6.90;1.75;;;;;;;8.85;100.00;100145.75;6269710;28;20338;-72
2023/12/29 04:50:49;;;;;;;3.55;1.13;;;;;;;8.88;100.00;100141.19;6274559;28;20042;-72
2023/12/29 04:53:51;;;;;;;2.58;1.13;;;;;;;8.83;100.00;100130.13;6279354;28;20045;-72
2023/12/29 04:56:54;;;;;;;1.33;1.00;;;;;;;8.93;100.00;100147.94;6279214;28;20052;-72
2023/12/29 04:59:55;;;;;;;2.03;1.40;;;;;;;8.95;100.00;100136.47;6279630;28;20044;-72
2023/12/29 05:02:57;;;;;;;8.05;1.95;;;;;;;8.97;100.00;100137.19;6279220;28;20044;-73
2023/12/29 05:05:58;;;;;;;6.40;1.10;;;;;;;8.96;100.00;100153.03;6278798;28;20068;-71
2023/12/29 05:08:59;;;;;;;3.20;1.40;;;;;;;9.08;100.00;100147.06;6279084;28;20049;-72
2023/12/29 05:12:02;;;;;;;3.90;1.02;;;;;;;9.04;100.00;100133.31;6279178;28;20064;-72
2023/12/29 05:15:05;;;;;;;5.35;1.08;;;;;;;9.06;100.00;100130.59;6278758;28;20060;-73
2023/12/29 05:18:06;;;;;;;3.25;1.23;;;;;;;9.06;100.00;100152.41;6279126;28;20357;-72
2023/12/29 05:21:15;;;;;;;7.13;1.55;;;;;;;9.12;100.00;100140.72;6279257;28;20044;-73
2023/12/29 05:24:16;;;;;;;5.43;1.25;;;;;;;9.08;100.00;100141.81;6278426;28;20459;-71
2023/12/29 05:27:19;;;;;;;5.03;1.42;;;;;;;9.03;100.00;100149.94;6279031;28;20060;-72
2023/12/29 05:30:20;;;;;;;3.67;1.35;;;;;;;8.97;100.00;100144.22;6278802;28;20052;-72
2023/12/29 05:33:21;;;;;;;4.25;1.20;;;;;;;8.92;100.00;100147.09;6278685;28;20048;-72
2023/12/29 05:36:23;;;;;;;7.35;1.58;;;;;;;8.88;100.00;100158.69;6277683;28;20045;-73
2023/12/29 05:39:24;;;;;;;6.60;1.90;;;;;;;8.82;100.00;100157.25;6278568;28;20381;-73
2023/12/29 05:42:27;;;;;;;4.80;1.15;;;;;;;8.82;100.00;100149.41;6277845;28;20041;-72
2023/12/29 05:45:28;;;;;;;4.28;1.45;;;;;;;8.82;100.00;100144.16;6278358;28;20468;-72
2023/12/29 05:48:29;;;;;;;2.58;1.50;;;;;;;8.81;100.00;100147.72;6278608;28;20048;-72
2023/12/29 05:51:31;;;;;;;4.07;2.17;;;;;;;8.80;100.00;100148.63;6278569;28;20049;-72
2023/12/29 05:54:32;;;;;;;9.60;2.28;;;;;;;8.78;100.00;100158.34;6277663;28;20053;-71
2023/12/29 05:57:35;;;;;;;8.15;1.50;;;;;;;8.77;100.00;100150.59;6278230;28;20357;-73
2023/12/29 06:00:36;;;;;;;3.47;1.55;;;;;;;8.80;100.00;100155.63;6277755;28;20433;-72
2023/12/29 06:03:38;;;;;;;3.88;2.03;;;;;;;8.79;100.00;100167.91;6276889;28;20350;-71
2023/12/29 06:06:39;;;;;;;4.43;1.42;;;;;;;8.73;100.00;100167.41;6276607;28;20056;-70
2023/12/29 06:09:41;;;;;;;11.90;2.38;;;;;;;8.75;100.00;100165.53;6277290;28;20068;-71
2023/12/29 06:12:44;;;;;;;5.97;2.45;;;;;;;8.83;100.00;100165.97;6277121;28;20056;-71
2023/12/29 06:15:45;;;;;;;3.58;1.77;;;;;;;8.79;100.00;100180.16;6277362;28;20095;-72
2023/12/29 06:18:47;;;;;;;8.98;2.25;;;;;;;8.81;100.00;100173.91;6277876;28;20053;-72
2023/12/29 06:21:48;;;;;;;7.78;2.42;;;;;;;8.86;100.00;100181.53;6276975;28;20037;-72
2023/12/29 06:24:49;;;;;;;9.32;2.47;;;;;;;8.87;100.00;100193.69;6277461;28;20040;-71
2023/12/29 06:27:52;;;;;;;9.95;1.98;;;;;;;8.87;100.00;100188.44;6277330;28;20354;-72
2023/12/29 06:30:53;;;;;;;16.35;2.28;;;;;;;8.86;100.00;100195.47;6277384;28;20044;-72
2023/12/29 06:33:55;;;;;;;5.10;1.90;;;;;;;8.91;100.00;100181.25;6277167;28;20365;-72
2023/12/29 06:36:56;;;;;;;14.55;1.95;;;;;;;8.94;100.00;100183.69;6276834;28;20041;-72
2023/12/29 06:39:57;;;;;;;3.72;1.60;;;;;;;8.94;100.00;100176.69;6277490;28;20052;-72
2023/12/29 06:43:00;;;;;;;4.55;1.45;;;;;;;8.99;100.00;100177.25;6276859;28;20044;-72
2023/12/29 06:46:02;;;;;;;11.10;1.55;;;;;;;8.98;100.00;100191.31;6276685;28;20037;-71
2023/12/29 06:49:03;;;;;;;6.10;1.52;;;;;;;9.10;100.00;100190.63;6277013;28;20041;-72
2023/12/29 06:52:05;;;;;;;7.35;1.67;;;;;;;9.00;100.00;100181.59;6276883;28;20104;-73
2023/12/29 06:55:07;;;;;;;8.23;1.58;;;;;;;8.88;100.00;100179.66;6275927;28;20132;-72
2023/12/29 06:58:10;;;;;;;11.00;1.50;;;;;;;8.82;100.00;100199.19;6276351;28;20458;-72
2023/12/29 07:01:12;;;;;;;4.72;1.45;;;;;;;8.70;100.00;100183.28;6275764;28;20045;-72
2023/12/29 07:04:14;;;;;;;4.75;1.58;;;;;;;8.74;100.00;100185.66;6274731;28;20045;-73
2023/12/29 07:07:15;;;;;;;4.25;0.90;;;;;;;8.66;100.00;100200.94;6275658;28;20291;-72
2023/12/29 07:10:16;;;;;;;4.25;0.95;;;;;;;8.61;100.00;100216.91;6315623;22;20051;-71
2023/12/29 07:13:19;;;;;;;5.78;1.27;;;;;;;8.40;100.00;100212.78;6301167;28;20051;-72
2023/12/29 07:16:21;;;;;;;6.20;1.65;;;;;;;8.28;100.00;100213.44;6300772;28;20130;-72
2023/12/29 07:19:22;;;;;;;19.33;2.15;;;;;;;8.22;100.00;100214.59;6288695;28;20049;-72
2023/12/29 07:22:23;;;;;;;14.70;1.13;;;;;;;8.14;100.00;100207.13;6275555;28;20357;-72
2023/12/29 07:25:24;;;;;;;3.80;1.25;;;;;;;8.11;100.00;100212.53;6275435;28;20049;-72
2023/12/29 07:28:28;;;;;;;9.82;1.80;;;;;;;8.07;100.00;100210.13;6276161;28;20052;-74
2023/12/29 07:31:29;;;;;;;5.50;1.42;;;;;;;8.08;100.00;100217.06;6268165;28;20323;-73
2023/12/29 07:34:31;;;;;;;5.10;0.98;;;;;;;8.12;100.00;100215.97;6275466;28;20056;-73
2023/12/29 07:37:32;;;;;;;3.28;1.35;;;;;;;8.13;100.00;100220.31;6275704;28;20135;-73
2023/12/29 07:40:33;;;;;;;13.68;1.42;;;;;;;8.12;100.00;100215.97;6276065;28;20053;-74
2023/12/29 07:43:36;;;;;;;7.38;1.65;;;;;;;8.12;100.00;100214.19;6275462;28;20049;-74
2023/12/29 07:46:38;;;;;;;11.13;1.45;;;;;;;8.13;100.00;100229.00;6275419;28;20353;-74
2023/12/29 07:49:42;;;;;;;9.38;2.33;;;;;;;8.10;100.00;100233.53;6275532;28;20049;-73
2023/12/29 07:52:44;;;;;;;7.82;1.33;;;;;;;8.14;100.00;100235.09;6275409;28;20090;-74
2023/12/29 07:55:47;;;;;;;11.00;1.13;;;;;;;8.11;100.00;100230.00;6275224;28;20128;-73
2023/12/29 07:58:49;;;;;;;10.27;1.40;;;;;;;8.09;100.00;100218.78;6275342;28;20377;-73
2023/12/29 08:01:51;;;;;;;4.38;1.15;;;;;;;8.13;100.00;100231.63;6275322;28;20040;-73
2023/12/29 08:04:52;;;;;;;7.05;1.48;;;;;;;8.11;100.00;100235.22;6271006;28;20045;-73
2023/12/29 08:07:54;;;;;;;9.23;1.52;;;;;;;8.18;100.00;100238.41;6272570;28;20046;-76
2023/12/29 08:10:56;;;;;;;11.10;1.75;;;;;;;8.20;100.00;100231.28;6273944;28;20119;-76
2023/12/29 08:13:58;;;;;;;11.40;1.65;;;;;;;8.25;100.00;100230.13;6270696;28;20544;-76
2023/12/29 08:17:00;;;;;;;4.32;1.15;;;;;;;8.29;100.00;100230.81;6274376;28;20049;-76
2023/12/29 08:20:01;;;;;;;9.73;1.40;;;;;;;8.34;100.00;100228.78;6275164;28;20044;-76
2023/12/29 08:23:03;;;;;;;9.43;1.38;;;;;;;8.36;100.00;100226.97;6274753;28;20048;-74
2023/12/29 08:26:05;;;;;;;6.45;1.13;;;;;;;8.47;100.00;100216.78;6274496;28;20124;-76
2023/12/29 08:29:07;;;;;;;9.43;1.65;;;;;;;8.61;100.00;100210.81;6273360;28;20045;-76
2023/12/29 08:32:09;;;;;;;9.38;1.55;;;;;;;8.69;100.00;100213.03;6269384;28;20426;-75
2023/12/29 08:35:10;;;;;;;9.23;2.00;;;;;;;8.76;100.00;100201.28;6273698;28;20041;-76
2023/12/29 08:38:11;;;;;;;12.57;2.15;;;;;;;8.81;100.00;100180.91;6271749;28;20056;-75
2023/12/29 08:41:14;;;;;;;7.70;1.20;;;;;;;8.93;100.00;100192.50;6269028;28;20048;-75
2023/12/29 08:44:17;;;;;;;8.10;1.45;;;;;;;8.92;100.00;100185.56;6268565;28;20044;-76
2023/12/29 08:47:18;;;;;;;7.03;1.42;;;;;;;9.05;100.00;100178.72;6274749;28;20048;-76
2023/12/29 08:50:21;;;;;;;9.55;2.28;;;;;;;9.07;100.00;100190.78;6272727;28;20052;-76
2023/12/29 08:53:23;;;;;;;7.45;1.55;;;;;;;9.17;100.00;100188.50;6266352;28;20052;-74
2023/12/29 08:56:24;;;;;;;4.47;1.42;;;;;;;9.14;100.00;100181.66;6268284;28;20048;-73
2023/12/29 08:59:27;;;;;;;11.55;1.85;;;;;;;9.09;100.00;100172.38;6270317;28;20049;-73
2023/12/29 09:02:28;;;;;;;18.90;1.20;;;;;;;9.22;100.00;100193.47;6269632;28;20045;-73
2023/12/29 09:05:29;;;;;;;9.63;1.60;;;;;;;9.30;100.00;100189.47;6269927;28;20041;-73
2023/12/29 09:08:31;;;;;;;8.73;1.40;;;;;;;9.28;100.00;100183.50;6259081;28;20438;-74
2023/12/29 09:11:32;;;;;;;6.75;1.65;;;;;;;9.38;100.00;100168.91;6264386;28;20046;-76
2023/12/29 09:14:35;;;;;;;10.55;1.98;;;;;;;9.47;100.00;100167.53;6269971;28;20060;-76
2023/12/29 09:17:36;;;;;;;18.30;1.50;;;;;;;9.42;100.00;100174.00;6269739;28;20057;-76
2023/12/29 09:20:37;;;;;;;6.10;1.23;;;;;;;9.44;100.00;100166.88;6261647;28;20069;-78
2023/12/29 09:23:39;;;;;;;5.20;1.00;;;;;;;9.44;100.00;100174.75;6270848;28;20094;-75
2023/12/29 09:26:40;;;;;;;6.65;1.40;;;;;;;9.45;100.00;100177.28;6272062;28;20052;-74
2023/12/29 09:29:43;;;;;;;12.45;1.30;;;;;;;9.53;100.00;100169.81;6258851;28;20061;-74
2023/12/29 09:32:44;;;;;;;8.40;2.10;;;;;;;9.55;100.00;100196.81;6258762;28;20046;-75
2023/12/29 09:35:46;;;;;;;4.57;1.60;;;;;;;9.68;100.00;100189.06;6259695;28;20085;-76
2023/12/29 09:38:47;;;;;;;7.10;1.05;;;;;;;9.71;100.00;100185.41;6265075;28;20493;-76
2023/12/29 09:41:52;;;;;;;7.60;1.73;;;;;;;9.71;100.00;100181.00;6264358;28;20050;-75
2023/12/29 09:44:55;;;;;;;8.20;2.17;;;;;;;9.72;100.00;100193.22;6269995;28;20075;-74
2023/12/29 09:47:58;;;;;;;7.72;1.20;;;;;;;9.76;100.00;100175.47;6273540;28;20044;-74
2023/12/29 09:51:00;;;;;;;10.68;1.25;;;;;;;9.76;100.00;100176.31;6277635;28;20045;-74
2023/12/29 09:54:02;;;;;;;8.65;1.73;;;;;;;9.78;100.00;100171.84;6270987;28;20119;-73
2023/12/29 09:57:05;;;;;;;5.32;1.65;;;;;;;9.83;100.00;100168.94;6275590;28;20548;-73
2023/12/29 10:00:11;;;;;;;8.50;1.40;;;;;;;9.84;100.00;100179.34;6269819;28;20127;-74
2023/12/29 10:03:13;;;;;;;5.95;0.60;;;;;;;9.75;100.00;100176.41;6277244;28;20045;-73
2023/12/29 10:06:20;;;;;;;7.57;1.38;;;;;;;9.74;100.00;100191.31;6270023;28;20041;-74
2023/12/29 10:09:22;;;;;;;4.72;0.88;;;;;;;9.72;100.00;100176.59;6274046;28;20045;-76
2023/12/29 10:12:25;;;;;;;1.52;0.70;;;;;;;9.59;100.00;100179.13;6277754;28;20044;-75
2023/12/29 10:15:35;;;;;;;2.05;0.65;;;;;;;9.55;100.00;100193.34;6277356;28;20132;-75
2023/12/29 10:18:46;;;;;;;2.75;0.70;;;;;;;9.53;100.00;100182.91;6271299;28;20053;-75
2023/12/29 10:21:55;;;;;;;4.35;0.40;;;;;;;9.50;100.00;100187.53;6273489;28;20045;-73
2023/12/29 10:24:57;;;;;;;1.48;0.63;;;;;;;9.52;100.00;100217.94;6277291;28;20056;-73
2023/12/29 10:27:59;;;;;;;2.67;0.73;;;;;;;9.45;100.00;100200.91;6277268;28;20069;-73
2023/12/29 10:31:02;;;;;;;2.00;0.63;;;;;;;9.38;100.00;100231.00;6277366;28;20456;-74
2023/12/29 10:34:19;;;;;;;8.73;0.90;;;;;;;9.25;100.00;100188.91;6277240;28;20051;-73
2023/12/29 10:37:23;;;;;;;3.20;0.90;;;;;;;9.13;100.00;100213.22;6275092;28;20048;-74
2023/12/29 10:40:25;;;;;;;3.25;0.90;;;;;;;9.00;100.00;100215.66;6276352;28;20064;-75
2023/12/29 10:43:27;;;;;;;4.40;0.73;;;;;;;8.91;100.00;100199.59;6272599;28;20455;-74
2023/12/29 10:46:29;;;;;;;1.77;0.95;;;;;;;8.96;100.00;100192.34;6269718;28;20652;-73
2023/12/29 10:49:31;;;;;;;2.35;0.80;;;;;;;8.80;100.00;100201.00;6268334;28;20045;-75
2023/12/29 10:52:33;;;;;;;1.20;0.32;;;;;;;8.82;100.00;100172.97;6268685;28;20044;-73
2023/12/29 10:55:34;;;;;;;4.88;0.82;;;;;;;8.76;100.00;100185.56;6276176;28;20053;-73
2023/12/29 10:58:37;;;;;;;1.65;0.50;;;;;;;8.82;100.00;100175.59;6274692;28;20046;-74
2023/12/29 11:01:40;;;;;;;1.83;0.73;;;;;;;8.78;100.00;100181.94;6272644;28;20356;-73
2023/12/29 11:04:41;;;;;;;2.38;0.70;;;;;;;8.77;100.00;100172.38;6276237;28;20061;-74
2023/12/29 11:07:42;;;;;;;1.65;0.73;;;;;;;8.78;100.00;100168.84;6275384;28;20388;-74
2023/12/29 11:10:44;;;;;;;5.93;1.42;;;;;;;8.82;100.00;100177.38;6276421;28;20056;-75
2023/12/29 11:13:47;;;;;;;3.67;1.05;;;;;;;8.85;100.00;100179.81;6275984;28;20155;-75
2023/12/29 11:16:51;;;;;;;1.50;0.95;;;;;;;8.90;100.00;100180.38;6271841;28;20377;-75
2023/12/29 11:19:53;;;;;;;3.85;1.25;;;;;;;8.86;100.00;100199.84;6274346;28;20045;-72
2023/12/29 11:22:55;;;;;;;1.63;0.95;;;;;;;8.87;100.00;100165.69;6276163;28;20047;-72
2023/12/29 11:25:58;;;;;;;5.38;1.20;;;;;;;8.93;100.00;100172.38;6275965;28;20044;-73
2023/12/29 11:29:00;;;;;;;6.35;0.90;;;;;;;8.92;100.00;100180.31;6276045;28;20045;-73
2023/12/29 11:32:06;;;;;;;4.63;1.13;;;;;;;8.99;100.00;100179.88;6275907;28;20349;-74
2023/12/29 11:35:13;;;;;;;0.93;0.80;;;;;;;9.04;100.00;100180.50;6274513;28;20056;-73
2023/12/29 11:38:34;;;;;;;2.47;0.90;;;;;;;9.08;100.00;100171.53;6260495;28;20453;-73
2023/12/29 11:41:41;;;;;;;3.03;1.17;;;;;;;9.11;100.00;100160.84;6267635;28;20045;-74
2023/12/29 11:44:44;;;;;;;4.03;1.30;;;;;;;9.24;100.00;100166.25;6269215;28;20503;-73
2023/12/29 11:47:53;;;;;;;3.63;1.65;;;;;;;9.26;100.00;100181.88;6268992;28;20110;-74
2023/12/29 11:50:54;;;;;;;4.07;1.55;;;;;;;9.30;100.00;100176.38;6274874;28;20055;-73
2023/12/29 11:53:56;;;;;;;5.80;1.83;;;;;;;9.30;100.00;100186.88;6275134;28;20345;-75
2023/12/29 11:56:57;;;;;;;2.58;1.70;;;;;;;9.37;100.00;100161.16;6275108;28;20346;-73
2023/12/29 11:59:59;;;;;;;9.93;1.67;;;;;;;9.40;100.00;100171.44;6263824;28;20353;-73
2023/12/29 12:03:02;;;;;;;7.30;1.55;;;;;;;9.46;100.00;100160.63;6251793;28;20053;-73
2023/12/29 12:06:03;;;;;;;5.63;1.65;;;;;;;9.57;100.00;100150.31;6254418;28;20048;-74
2023/12/29 12:09:18;;;;;;;4.03;1.50;;;;;;;9.59;100.00;100148.47;6262977;28;20059;-74
2023/12/29 12:12:39;;;;;;;8.55;1.50;;;;;;;9.57;100.00;100155.56;6264964;28;20143;-75
2023/12/29 12:15:41;;;;;;;4.35;1.60;;;;;;;9.54;100.00;100147.91;6265739;28;20049;-76
2023/12/29 12:18:44;;;;;;;3.90;1.50;;;;;;;9.66;100.00;100159.44;6269223;28;20053;-74
2023/12/29 12:21:48;;;;;;;2.90;1.67;;;;;;;9.71;100.00;100152.13;6268193;28;20049;-75
2023/12/29 12:24:51;;;;;;;6.68;1.55;;;;;;;9.66;100.00;100160.28;6274200;28;20337;-74
2023/12/29 12:27:53;;;;;;;6.05;1.30;;;;;;;9.77;100.00;100148.31;6275644;28;20049;-74
2023/12/29 12:31:08;;;;;;;5.68;1.63;;;;;;;9.83;100.00;100147.94;6276680;28;20352;-74
2023/12/29 12:34:11;;;;;;;3.05;1.25;;;;;;;9.95;100.00;100138.47;6273417;28;20344;-75
2023/12/29 12:37:12;;;;;;;7.00;1.60;;;;;;;9.86;100.00;100132.03;6273252;28;20049;-75
2023/12/29 12:40:25;;;;;;;3.75;1.40;;;;;;;9.88;100.00;100135.41;6270175;28;20045;-74
2023/12/29 12:43:28;;;;;;;2.72;1.20;;;;;;;9.88;100.00;100124.91;6271083;28;20045;-77
2023/12/29 12:46:34;;;;;;;5.40;1.33;;;;;;;9.99;100.00;100132.09;6266089;28;20166;-73
2023/12/29 12:49:37;;;;;;;3.10;1.30;;;;;;;10.02;100.00;100134.56;6272559;28;20056;-73
2023/12/29 12:52:40;;;;;;;5.25;1.48;;;;;;;10.13;100.00;100090.13;6273242;28;20052;-73
2023/12/29 12:55:42;;;;;;;4.30;1.00;;;;;;;10.14;100.00;100078.69;6271289;28;20049;-73
2023/12/29 12:58:43;;;;;;;5.22;0.85;;;;;;;10.06;100.00;100196.44;6273242;28;20045;-73
2023/12/29 13:01:45;;;;;;;0.73;0.40;;;;;;;8.75;100.00;100186.50;6272330;28;20052;-73
2023/12/29 13:04:48;;;;;;;0.93;0.43;;;;;;;8.11;100.00;100170.66;6272502;28;20052;-74
2023/12/29 13:07:49;;;;;;;2.83;0.50;;;;;;;7.98;100.00;100181.84;6272152;28;20045;-73
2023/12/29 13:10:51;;;;;;;1.80;0.60;;;;;;;7.95;100.00;100190.69;6293475;22;20356;-71
2023/12/29 13:13:56;;;;;;;1.58;0.80;;;;;;;8.20;100.00;100169.31;6304867;28;20045;-69
2023/12/29 13:16:58;;;;;;;5.43;1.08;;;;;;;8.54;100.00;100183.25;6310980;28;20041;-71
2023/12/29 13:20:00;;;;;;;5.68;0.80;;;;;;;8.90;100.00;100162.03;6309132;28;20056;-70
2023/12/29 13:23:02;;;;;;;2.13;1.23;;;;;;;8.83;100.00;100161.56;6285311;28;20179;-70
2023/12/29 13:26:06;;;;;;;4.50;1.25;;;;;;;8.76;100.00;100154.13;6279182;28;20467;-70
2023/12/29 13:29:08;;;;;;;7.53;1.08;;;;;;;8.54;100.00;100180.63;6286755;28;20048;-71
2023/12/29 13:32:14;;;;;;;7.32;0.80;;;;;;;8.22;100.00;100171.84;6279513;28;20056;-73
2023/12/29 13:35:24;;;;;;;3.80;0.80;;;;;;;8.09;100.00;100174.28;6282301;28;20353;-69
2023/12/29 13:38:33;;;;;;;3.15;0.90;;;;;;;8.17;100.00;100176.47;6276602;28;20053;-70
2023/12/29 13:41:35;;;;;;;4.63;0.70;;;;;;;8.40;100.00;100194.47;6279360;28;20056;-70
2023/12/29 13:44:38;;;;;;;0.88;0.60;;;;;;;8.47;100.00;100184.53;6262142;28;20046;-70
2023/12/29 13:47:40;;;;;;;4.28;0.82;;;;;;;8.41;100.00;100166.53;6265445;28;20049;-71
2023/12/29 13:50:46;;;;;;;1.40;0.73;;;;;;;8.30;100.00;100159.19;6272877;28;20045;-75
2023/12/29 13:53:48;;;;;;;3.67;0.82;;;;;;;8.23;100.00;100160.47;6278216;28;20052;-77
2023/12/29 13:56:53;;;;;;;3.33;1.67;;;;;;;8.04;100.00;100169.28;6279876;28;20528;-72
2023/12/29 13:59:54;;;;;;;2.88;0.82;;;;;;;7.92;100.00;100163.84;6275463;28;20049;-71
2023/12/29 14:03:03;;;;;;;2.67;0.63;;;;;;;7.80;100.00;100168.75;6280942;28;20065;-70
2023/12/29 14:06:09;;;;;;;1.47;0.53;;;;;;;7.83;100.00;100158.16;6266437;28;20362;-71
2023/12/29 14:09:16;;;;;;;1.90;0.70;;;;;;;7.78;100.00;100162.78;6257485;28;20045;-72